sensor_id;sensor_type;location;lat;lon;timestamp;pressure;altitude;pressure_sealevel;temperature
38249;BMP280;24045;51.138;17.126;2023-09-12T00:12:09;99996.75;;;15.72
38249;BMP280;24045;51.138;17.126;2023-09-12T00:27:12;99991.86;;;15.72
38249;BMP280;24045;51.138;17.126;2023-09-12T00:42:14;99990.48;;;15.50
38249;BMP280;24045;51.138;17.126;2023-09-12T00:57:18;99992.58;;;15.31
38249;BMP280;24045;51.138;17.126;2023-09-12T01:12:22;99995.74;;;15.14
38249;BMP280;24045;51.138;17.126;2023-09-12T01:27:30;99989.93;;;15.05
38249;BMP280;24045;51.138;17.126;2023-09-12T01:42:37;99983.71;;;15.23
38249;BMP280;24045;51.138;17.126;2023-09-12T01:57:41;99987.45;;;15.15
38249;BMP280;24045;51.138;17.126;2023-09-12T02:12:44;99990.50;;;15.11
38249;BMP280;24045;51.138;17.126;2023-09-12T02:27:47;99987.80;;;15.08
38249;BMP280;24045;51.138;17.126;2023-09-12T02:42:49;99994.45;;;14.90
38249;BMP280;24045;51.138;17.126;2023-09-12T02:57:52;99990.17;;;14.64
38249;BMP280;24045;51.138;17.126;2023-09-12T03:12:55;99996.13;;;14.47
38249;BMP280;24045;51.138;17.126;2023-09-12T03:27:58;100001.25;;;14.27
38249;BMP280;24045;51.138;17.126;2023-09-12T03:43:01;100001.84;;;14.06
38249;BMP280;24045;51.138;17.126;2023-09-12T03:58:04;100002.15;;;13.88
38249;BMP280;24045;51.138;17.126;2023-09-12T04:13:06;99998.30;;;13.84
38249;BMP280;24045;51.138;17.126;2023-09-12T04:28:09;99992.75;;;13.79
38249;BMP280;24045;51.138;17.126;2023-09-12T04:43:12;100002.59;;;14.05
38249;BMP280;24045;51.138;17.126;2023-09-12T04:58:15;100006.20;;;14.17
38249;BMP280;24045;51.138;17.126;2023-09-12T05:13:18;100012.76;;;15.12
38249;BMP280;24045;51.138;17.126;2023-09-12T05:28:20;100018.88;;;17.26
38249;BMP280;24045;51.138;17.126;2023-09-12T05:43:23;100033.33;;;19.86
38249;BMP280;24045;51.138;17.126;2023-09-12T05:58:26;100031.45;;;22.05
38249;BMP280;24045;51.138;17.126;2023-09-12T06:13:29;100035.65;;;24.29
38249;BMP280;24045;51.138;17.126;2023-09-12T06:28:32;100025.53;;;25.63
38249;BMP280;24045;51.138;17.126;2023-09-12T06:43:35;100026.79;;;25.63
38249;BMP280;24045;51.138;17.126;2023-09-12T06:58:38;100019.91;;;27.72
38249;BMP280;24045;51.138;17.126;2023-09-12T07:13:42;100024.21;;;28.17
38249;BMP280;24045;51.138;17.126;2023-09-12T07:28:46;100032.75;;;29.50
38249;BMP280;24045;51.138;17.126;2023-09-12T07:43:49;100022.75;;;30.31
38249;BMP280;24045;51.138;17.126;2023-09-12T07:58:52;100025.17;;;31.18
38249;BMP280;24045;51.138;17.126;2023-09-12T08:13:55;100015.10;;;32.54
38249;BMP280;24045;51.138;17.126;2023-09-12T08:29:00;100017.05;;;32.52
38249;BMP280;24045;51.138;17.126;2023-09-12T08:44:03;100014.32;;;32.87
38249;BMP280;24045;51.138;17.126;2023-09-12T08:59:14;100012.70;;;33.87
38249;BMP280;24045;51.138;17.126;2023-09-12T09:14:18;100026.31;;;34.67
38249;BMP280;24045;51.138;17.126;2023-09-12T09:29:21;100028.91;;;33.88
38249;BMP280;24045;51.138;17.126;2023-09-12T09:44:26;100020.16;;;35.28
38249;BMP280;24045;51.138;17.126;2023-09-12T09:59:30;100010.54;;;35.60
38249;BMP280;24045;51.138;17.126;2023-09-12T10:14:33;100007.58;;;34.85
38249;BMP280;24045;51.138;17.126;2023-09-12T10:29:38;100002.45;;;34.26
38249;BMP280;24045;51.138;17.126;2023-09-12T10:44:41;100001.85;;;33.62
38249;BMP280;24045;51.138;17.126;2023-09-12T11:15:05;99989.73;;;32.78
38249;BMP280;24045;51.138;17.126;2023-09-12T11:30:09;99985.27;;;32.98
38249;BMP280;24045;51.138;17.126;2023-09-12T11:45:12;99978.77;;;32.87
38249;BMP280;24045;51.138;17.126;2023-09-12T12:00:15;99978.57;;;33.01
38249;BMP280;24045;51.138;17.126;2023-09-12T12:15:22;99970.87;;;32.38
38249;BMP280;24045;51.138;17.126;2023-09-12T12:30:25;99958.74;;;32.41
38249;BMP280;24045;51.138;17.126;2023-09-12T12:45:28;99964.95;;;32.48
38249;BMP280;24045;51.138;17.126;2023-09-12T13:00:31;99962.73;;;32.25
38249;BMP280;24045;51.138;17.126;2023-09-12T13:15:34;99952.48;;;32.17
38249;BMP280;24045;51.138;17.126;2023-09-12T13:30:37;99944.10;;;31.64
38249;BMP280;24045;51.138;17.126;2023-09-12T13:45:40;99931.10;;;31.42
38249;BMP280;24045;51.138;17.126;2023-09-12T14:00:44;99922.42;;;31.41
38249;BMP280;24045;51.138;17.126;2023-09-12T14:15:47;99916.21;;;31.34
38249;BMP280;24045;51.138;17.126;2023-09-12T14:30:53;99918.94;;;31.03
38249;BMP280;24045;51.138;17.126;2023-09-12T14:45:56;99918.59;;;30.98
38249;BMP280;24045;51.138;17.126;2023-09-12T15:00:59;99912.93;;;30.83
38249;BMP280;24045;51.138;17.126;2023-09-12T15:16:07;99908.85;;;30.33
38249;BMP280;24045;51.138;17.126;2023-09-12T15:31:10;99911.22;;;29.84
38249;BMP280;24045;51.138;17.126;2023-09-12T15:46:14;99906.38;;;29.69
38249;BMP280;24045;51.138;17.126;2023-09-12T16:01:35;99898.21;;;28.98
38249;BMP280;24045;51.138;17.126;2023-09-12T16:16:38;99900.05;;;28.19
38249;BMP280;24045;51.138;17.126;2023-09-12T16:31:41;99899.39;;;27.43
38249;BMP280;24045;51.138;17.126;2023-09-12T16:46:44;99896.69;;;26.54
38249;BMP280;24045;51.138;17.126;2023-09-12T17:01:47;99891.73;;;25.77
38249;BMP280;24045;51.138;17.126;2023-09-12T17:16:49;99884.27;;;25.05
38249;BMP280;24045;51.138;17.126;2023-09-12T17:31:53;99889.73;;;24.36
38249;BMP280;24045;51.138;17.126;2023-09-12T17:46:56;99893.41;;;23.73
38249;BMP280;24045;51.138;17.126;2023-09-12T18:02:00;99904.41;;;23.18
38249;BMP280;24045;51.138;17.126;2023-09-12T18:17:03;99909.30;;;22.67
38249;BMP280;24045;51.138;17.126;2023-09-12T18:32:06;99920.30;;;22.21
38249;BMP280;24045;51.138;17.126;2023-09-12T18:47:09;99925.95;;;21.73
38249;BMP280;24045;51.138;17.126;2023-09-12T19:02:12;99929.11;;;21.36
38249;BMP280;24045;51.138;17.126;2023-09-12T19:17:16;99932.17;;;21.02
38249;BMP280;24045;51.138;17.126;2023-09-12T19:32:19;99930.22;;;20.69
38249;BMP280;24045;51.138;17.126;2023-09-12T19:47:22;99932.90;;;20.39
38249;BMP280;24045;51.138;17.126;2023-09-12T20:02:24;99931.58;;;20.09
38249;BMP280;24045;51.138;17.126;2023-09-12T20:17:27;99930.04;;;19.80
38249;BMP280;24045;51.138;17.126;2023-09-12T20:32:31;99942.36;;;19.58
38249;BMP280;24045;51.138;17.126;2023-09-12T20:47:50;99946.23;;;19.33
38249;BMP280;24045;51.138;17.126;2023-09-12T21:02:54;99951.15;;;19.08
38249;BMP280;24045;51.138;17.126;2023-09-12T21:17:57;99946.96;;;18.85
38249;BMP280;24045;51.138;17.126;2023-09-12T21:33:00;99944.80;;;18.77
38249;BMP280;24045;51.138;17.126;2023-09-12T21:48:03;99937.92;;;18.74
38249;BMP280;24045;51.138;17.126;2023-09-12T22:03:06;99925.77;;;19.06
38249;BMP280;24045;51.138;17.126;2023-09-12T22:18:10;99928.55;;;19.29
38249;BMP280;24045;51.138;17.126;2023-09-12T22:33:14;99925.31;;;19.01
38249;BMP280;24045;51.138;17.126;2023-09-12T22:48:18;99929.12;;;18.63
38249;BMP280;24045;51.138;17.126;2023-09-12T23:03:22;99927.10;;;18.24
38249;BMP280;24045;51.138;17.126;2023-09-12T23:18:25;99918.66;;;17.95
38249;BMP280;24045;51.138;17.126;2023-09-12T23:33:28;99919.03;;;17.86
38249;BMP280;24045;51.138;17.126;2023-09-12T23:48:31;99925.83;;;17.74
